createdAt,value
2019-05-13T00:02:28.924Z,13.88
2019-05-13T00:04:59.590Z,13.84
2019-05-13T00:07:30.081Z,13.68
2019-05-13T00:10:00.680Z,13.76
2019-05-13T00:12:31.311Z,13.60
2019-05-13T00:15:03.640Z,13.64
2019-05-13T00:17:33.923Z,13.55
2019-05-13T00:20:04.319Z,13.57
2019-05-13T00:22:35.971Z,13.41
2019-05-13T00:25:06.996Z,13.48
2019-05-13T00:27:37.584Z,13.43
2019-05-13T00:30:08.328Z,13.37
2019-05-13T00:32:38.837Z,13.27
2019-05-13T00:35:09.242Z,13.18
2019-05-13T00:37:39.723Z,13.21
2019-05-13T00:40:10.052Z,13.10
2019-05-13T00:42:40.792Z,13.15
2019-05-13T00:45:14.255Z,13.19
2019-05-13T00:47:44.043Z,12.97
2019-05-13T00:50:14.553Z,13.09
2019-05-13T00:52:46.071Z,12.88
2019-05-13T00:55:16.487Z,12.80
2019-05-13T00:57:46.856Z,12.74
2019-05-13T01:00:17.432Z,12.73
2019-05-13T01:02:47.890Z,12.78
2019-05-13T01:05:18.790Z,12.58
2019-05-13T01:07:49.283Z,12.39
2019-05-13T01:10:19.868Z,12.40
2019-05-13T01:12:50.321Z,12.56
2019-05-13T01:15:20.771Z,12.51
2019-05-13T01:17:53.387Z,12.32
2019-05-13T01:20:23.637Z,12.24
2019-05-13T01:22:54.243Z,11.88
2019-05-13T01:25:24.887Z,12.01
2019-05-13T01:27:55.494Z,11.89
2019-05-13T01:30:25.975Z,11.98
2019-05-13T01:32:56.203Z,12.09
2019-05-13T01:35:26.722Z,12.06
2019-05-13T01:37:57.284Z,12.14
2019-05-13T01:40:27.665Z,12.05
2019-05-13T01:42:58.019Z,12.14
2019-05-13T01:45:28.592Z,12.18
2019-05-13T01:47:59.259Z,12.07
2019-05-13T01:50:29.998Z,12.08
2019-05-13T01:53:00.289Z,12.14
2019-05-13T01:55:33.565Z,12.10
2019-05-13T01:58:04.246Z,12.19
2019-05-13T02:00:35.738Z,12.27
2019-05-13T02:03:06.425Z,12.31
2019-05-13T02:05:36.978Z,12.36
2019-05-13T02:08:07.284Z,12.35
2019-05-13T02:11:09.118Z,12.42
2019-05-13T02:13:39.502Z,12.33
2019-05-13T02:16:11.051Z,12.46
2019-05-13T02:18:41.324Z,12.56
2019-05-13T02:21:13.539Z,12.56
2019-05-13T02:23:44.406Z,12.57
2019-05-13T02:26:15.273Z,12.45
2019-05-13T02:28:45.786Z,12.52
2019-05-13T02:31:22.875Z,12.51
2019-05-13T02:33:48.473Z,12.44
2019-05-13T02:36:22.535Z,12.50
2019-05-13T02:38:53.196Z,12.37
2019-05-13T02:41:24.409Z,12.37
2019-05-13T02:43:54.870Z,12.41
2019-05-13T02:46:25.566Z,12.36
2019-05-13T02:48:56.319Z,12.27
2019-05-13T02:51:26.789Z,12.33
2019-05-13T02:53:57.351Z,12.26
2019-05-13T02:56:28.053Z,12.28
2019-05-13T02:58:58.309Z,12.22
2019-05-13T03:01:28.818Z,12.36
2019-05-13T03:04:02.778Z,12.33
2019-05-13T03:06:33.121Z,12.42
2019-05-13T03:09:05.091Z,12.23
2019-05-13T03:11:35.572Z,12.34
2019-05-13T03:14:06.073Z,12.33
2019-05-13T03:17:04.446Z,12.43
2019-05-13T03:19:35.170Z,12.25
2019-05-13T03:22:05.686Z,12.29
2019-05-13T03:24:36.225Z,12.45
2019-05-13T03:27:06.980Z,12.32
2019-05-13T03:29:37.756Z,12.24
2019-05-13T03:32:08.352Z,12.28
2019-05-13T03:34:38.648Z,12.25
2019-05-13T03:37:14.648Z,12.28
2019-05-13T03:39:43.450Z,12.38
2019-05-13T03:42:15.478Z,12.58
2019-05-13T03:44:46.177Z,12.63
2019-05-13T03:47:17.971Z,12.66
2019-05-13T03:49:53.162Z,12.71
2019-05-13T03:52:22.690Z,12.68
2019-05-13T03:54:54.154Z,12.66
2019-05-13T03:57:24.883Z,12.80
2019-05-13T03:59:55.410Z,12.71
2019-05-13T04:02:25.798Z,12.67
2019-05-13T04:04:58.918Z,12.65
2019-05-13T04:07:28.389Z,12.64
2019-05-13T04:09:58.857Z,12.61
2019-05-13T04:12:29.333Z,12.68
2019-05-13T04:15:03.410Z,12.71
2019-05-13T04:17:32.386Z,12.93
2019-05-13T04:20:03.281Z,12.95
2019-05-13T04:22:33.645Z,12.87
2019-05-13T04:25:04.037Z,12.80
2019-05-13T04:27:34.507Z,13.08
2019-05-13T04:30:05.238Z,12.99
2019-05-13T04:32:35.651Z,13.01
2019-05-13T04:35:06.212Z,13.00
2019-05-13T04:37:38.327Z,13.05
2019-05-13T04:40:12.488Z,13.08
2019-05-13T04:42:42.677Z,13.26
2019-05-13T04:45:13.726Z,13.30
2019-05-13T04:47:44.450Z,13.38
2019-05-13T04:50:15.041Z,13.47
2019-05-13T04:52:45.611Z,13.47
2019-05-13T04:55:16.274Z,13.57
2019-05-13T04:57:46.728Z,13.57
2019-05-13T05:00:22.538Z,13.64
2019-05-13T05:03:03.832Z,13.79
2019-05-13T05:05:53.657Z,14.00
2019-05-13T05:08:47.229Z,14.13
2019-05-13T05:11:38.832Z,14.30
2019-05-13T05:14:22.490Z,14.40
2019-05-13T05:17:03.333Z,14.60
2019-05-13T05:19:46.670Z,14.54
2019-05-13T05:22:22.294Z,14.50
2019-05-13T05:25:06.966Z,14.73
2019-05-13T05:28:03.804Z,14.91
2019-05-13T05:31:04.752Z,15.10
2019-05-13T05:33:54.103Z,15.26
2019-05-13T05:36:51.896Z,15.20
2019-05-13T05:39:25.626Z,14.94
2019-05-13T05:41:57.051Z,14.94
2019-05-13T05:44:29.021Z,14.94
2019-05-13T05:47:02.539Z,14.80
2019-05-13T05:49:33.233Z,14.86
2019-05-13T05:52:04.514Z,14.81
2019-05-13T05:54:37.686Z,14.88
2019-05-13T05:57:08.839Z,15.16
2019-05-13T05:59:39.422Z,15.23
2019-05-13T06:02:12.148Z,15.34
2019-05-13T06:04:44.588Z,15.32
2019-05-13T06:07:15.376Z,15.23
2019-05-13T06:09:45.979Z,15.04
2019-05-13T06:12:16.437Z,15.19
2019-05-13T06:14:47.238Z,15.14
2019-05-13T06:17:17.720Z,14.96
2019-05-13T06:19:48.220Z,14.94
2019-05-13T06:22:18.837Z,15.01
2019-05-13T06:24:49.306Z,15.26
2019-05-13T06:27:21.324Z,15.18
2019-05-13T06:29:54.937Z,15.20
2019-05-13T06:32:26.574Z,15.13
2019-05-13T06:34:57.471Z,15.17
2019-05-13T06:37:27.769Z,15.15
2019-05-13T06:39:58.548Z,14.83
2019-05-13T06:56:39.379Z,16.17
2019-05-13T06:59:11.891Z,15.86
2019-05-13T07:01:43.822Z,15.78
2019-05-13T07:04:15.337Z,16.02
2019-05-13T07:19:41.227Z,16.40
2019-05-13T07:22:11.737Z,16.55
2019-05-13T07:24:43.892Z,16.28
2019-05-13T07:27:15.659Z,16.25
2019-05-13T07:29:47.587Z,16.02
2019-05-13T07:32:21.940Z,16.14
2019-05-13T07:34:53.428Z,16.27
2019-05-13T07:37:26.137Z,16.28
2019-05-13T07:39:58.208Z,16.05
2019-05-13T07:42:31.237Z,16.10
2019-05-13T07:45:01.924Z,16.09
2019-05-13T07:47:33.582Z,16.07
2019-05-13T07:50:05.260Z,15.90
2019-05-13T07:52:37.052Z,16.03
2019-05-13T07:55:11.783Z,16.00
2019-05-13T07:57:42.543Z,15.94
2019-05-13T08:00:14.315Z,15.97
2019-05-13T08:02:46.057Z,16.14
2019-05-13T08:05:17.945Z,16.19
2019-05-13T08:07:51.500Z,16.17
2019-05-13T08:10:22.858Z,16.16
2019-05-13T08:12:55.480Z,16.25
2019-05-13T08:15:27.221Z,16.44
2019-05-13T08:18:01.804Z,16.49
2019-05-13T08:20:32.862Z,16.51
2019-05-13T08:23:04.717Z,16.58
2019-05-13T08:25:37.063Z,16.53
2019-05-13T08:28:09.224Z,16.49
2019-05-13T08:30:42.658Z,16.63
2019-05-13T08:33:14.205Z,16.61
2019-05-13T08:35:47.063Z,16.57
2019-05-13T08:38:19.286Z,16.56
2019-05-13T08:40:54.036Z,16.73
2019-05-13T08:43:25.349Z,16.68
2019-05-13T08:45:57.013Z,16.81
2019-05-13T08:48:28.605Z,16.96
2019-05-13T08:51:03.029Z,16.62
2019-05-13T08:53:33.735Z,16.81
2019-05-13T08:56:05.352Z,16.69
2019-05-13T08:58:37.358Z,16.58
2019-05-13T09:01:09.182Z,16.66
2019-05-13T09:06:14.710Z,16.66
2019-05-13T09:08:46.192Z,16.51
2019-05-13T09:11:18.319Z,16.45
2019-05-13T09:13:51.604Z,16.25
2019-05-13T09:16:23.532Z,16.21
2019-05-13T09:18:55.115Z,16.14
2019-05-13T09:21:26.883Z,16.23
2019-05-13T09:23:58.603Z,16.13
2019-05-13T09:26:31.567Z,16.16
2019-05-13T09:29:03.642Z,16.05
2019-05-13T09:31:35.869Z,16.10
2019-05-13T09:34:07.843Z,15.96
2019-05-13T09:36:41.758Z,15.84
2019-05-13T09:39:12.866Z,15.87
2019-05-13T09:41:44.810Z,15.81
2019-05-13T09:44:16.696Z,15.81
2019-05-13T09:46:48.464Z,15.88
2019-05-13T09:49:23.553Z,15.87
2019-05-13T09:51:53.486Z,15.91
2019-05-13T09:54:25.018Z,15.89
2019-05-13T09:56:57.054Z,15.88
2019-05-13T09:59:28.573Z,15.78
2019-05-13T10:02:03.013Z,15.89
2019-05-13T10:04:34.112Z,15.89
2019-05-13T10:07:05.838Z,16.00
2019-05-13T10:09:37.636Z,16.14
2019-05-13T10:12:11.915Z,16.25
2019-05-13T10:14:42.965Z,16.40
2019-05-13T10:17:14.699Z,16.66
2019-05-13T10:19:46.493Z,16.68
2019-05-13T10:22:18.381Z,16.70
2019-05-13T10:24:51.391Z,16.70
2019-05-13T10:27:24.822Z,16.66
2019-05-13T10:29:55.496Z,16.64
2019-05-13T10:32:27.300Z,16.69
2019-05-13T10:35:02.997Z,16.67
2019-05-13T10:37:33.642Z,16.57
2019-05-13T10:40:05.518Z,16.57
2019-05-13T10:42:37.520Z,16.54
2019-05-13T10:45:09.429Z,16.76
2019-05-13T10:47:42.350Z,16.79
2019-05-13T10:50:15.458Z,16.62
2019-05-13T10:52:48.328Z,16.76
2019-05-13T10:55:21.578Z,16.82
2019-05-13T10:57:54.767Z,16.89
2019-05-13T11:00:42.820Z,16.98
2019-05-13T11:03:15.927Z,17.00
2019-05-13T11:05:48.651Z,17.11
2019-05-13T11:08:22.147Z,17.24
2019-05-13T11:10:54.487Z,17.16
2019-05-13T11:13:26.239Z,17.17
2019-05-13T11:15:58.677Z,17.23
2019-05-13T11:18:30.579Z,17.28
2019-05-13T11:21:02.995Z,17.19
2019-05-13T11:23:34.720Z,17.28
2019-05-13T11:26:06.281Z,17.43
2019-05-13T11:28:38.232Z,17.57
2019-05-13T11:31:09.930Z,17.66
2019-05-13T11:33:42.688Z,17.80
2019-05-13T11:36:18.988Z,17.82
2019-05-13T11:38:48.487Z,17.57
2019-05-13T11:41:22.866Z,17.42
2019-05-13T11:44:12.038Z,17.55
2019-05-13T11:46:27.334Z,17.48
2019-05-13T11:48:58.970Z,17.33
2019-05-13T11:51:31.962Z,17.43
2019-05-13T11:54:02.801Z,17.40
2019-05-13T11:56:34.401Z,17.36
2019-05-13T11:59:05.988Z,17.20
2019-05-13T12:01:37.668Z,17.17
2019-05-13T12:04:09.247Z,17.18
2019-05-13T12:06:48.538Z,17.27
2019-05-13T12:09:14.447Z,17.28
2019-05-13T12:11:45.952Z,17.24
2019-05-13T12:14:39.168Z,17.20
2019-05-13T12:16:52.645Z,17.29
2019-05-13T12:19:24.486Z,17.26
2019-05-13T12:21:56.254Z,17.30
2019-05-13T12:24:28.170Z,17.37
2019-05-13T12:27:03.294Z,17.43
2019-05-13T12:29:33.350Z,17.52
2019-05-13T12:32:04.979Z,17.52
2019-05-13T12:34:40.758Z,17.51
2019-05-13T12:37:12.305Z,17.54
2019-05-13T12:39:44.259Z,17.48
2019-05-13T12:42:15.784Z,17.50
2019-05-13T12:47:22.764Z,17.53
2019-05-13T12:49:54.641Z,17.71
2019-05-13T12:52:25.884Z,17.88
2019-05-13T12:54:57.922Z,18.02
2019-05-13T12:57:31.917Z,18.13
2019-05-13T13:00:03.401Z,18.53
2019-05-13T13:02:37.215Z,18.19
2019-05-13T13:05:14.078Z,18.09
2019-05-13T13:07:42.680Z,17.93
2019-05-13T13:10:14.985Z,17.91
2019-05-13T13:12:46.496Z,18.08
2019-05-13T13:15:37.225Z,18.12
2019-05-13T13:17:54.013Z,18.24
2019-05-13T13:20:25.986Z,18.35
2019-05-13T13:22:57.987Z,18.26
2019-05-13T13:25:29.395Z,18.36
2019-05-13T13:30:35.452Z,18.97
2019-05-13T13:33:07.278Z,18.89
2019-05-13T13:35:44.088Z,18.67
2019-05-13T13:38:12.550Z,18.69
2019-05-13T13:40:45.673Z,18.49
2019-05-13T13:43:17.791Z,18.33
2019-05-13T13:46:07.730Z,18.14
2019-05-13T13:48:25.714Z,18.01
2019-05-13T13:50:57.571Z,17.88
2019-05-13T13:53:29.537Z,17.83
2019-05-13T13:56:02.271Z,17.88
2019-05-13T13:58:33.980Z,17.74
2019-05-13T14:01:12.484Z,17.71
2019-05-13T14:03:45.614Z,17.63
2019-05-13T14:06:12.867Z,17.70
2019-05-13T14:06:25.036Z,16.66
2019-05-13T14:06:58.377Z,18.60
2019-05-13T14:07:13.139Z,17.48
2019-05-13T14:08:44.450Z,17.65
2019-05-13T14:11:16.058Z,17.50
2019-05-13T14:13:47.675Z,17.36
2019-05-13T14:16:28.482Z,17.39
2019-05-13T14:18:53.262Z,17.48
2019-05-13T14:21:25.315Z,17.54
2019-05-13T14:23:57.270Z,17.41
2019-05-13T14:26:28.943Z,17.51
2019-05-13T14:29:02.626Z,17.70
2019-05-13T14:31:34.428Z,17.72
2019-05-13T14:34:06.307Z,17.52
2019-05-13T14:36:37.786Z,17.61
2019-05-13T14:39:12.049Z,17.51
2019-05-13T14:41:43.590Z,17.39
2019-05-13T14:44:15.159Z,17.48
2019-05-13T14:46:48.025Z,17.47
2019-05-13T14:49:19.014Z,17.45
2019-05-13T14:51:52.247Z,17.29
2019-05-13T14:54:26.825Z,17.27
2019-05-13T14:56:59.143Z,17.33
2019-05-13T14:59:31.588Z,17.38
2019-05-13T15:02:03.460Z,17.55
2019-05-13T15:04:36.147Z,17.38
2019-05-13T15:07:07.882Z,17.43
2019-05-13T15:09:41.948Z,17.66
2019-05-13T15:12:12.817Z,17.57
2019-05-13T15:14:44.377Z,17.37
2019-05-13T15:17:16.038Z,17.51
2019-05-13T15:19:47.816Z,17.40
2019-05-13T15:22:22.467Z,17.46
2019-05-13T15:24:52.875Z,17.33
2019-05-13T15:27:24.661Z,17.39
2019-05-13T15:29:56.399Z,17.34
2019-05-13T15:32:28.353Z,17.23
2019-05-13T15:35:02.234Z,17.26
2019-05-13T15:37:33.729Z,17.26
2019-05-13T15:40:05.474Z,17.26
2019-05-13T15:42:37.112Z,17.07
2019-05-13T15:45:12.680Z,16.85
2019-05-13T15:47:44.646Z,16.85
2019-05-13T15:50:17.397Z,16.73
2019-05-13T15:52:49.179Z,16.67
2019-05-13T15:55:22.082Z,16.64
2019-05-13T15:57:53.582Z,16.56
2019-05-13T16:00:25.230Z,16.75
2019-05-13T16:02:57.406Z,16.60
2019-05-13T16:05:28.985Z,16.71
2019-05-13T16:08:02.490Z,16.73
2019-05-13T16:10:34.603Z,16.62
2019-05-13T16:13:06.296Z,16.72
2019-05-13T16:15:38.222Z,16.65
2019-05-13T16:18:11.708Z,16.68
2019-05-13T16:20:45.369Z,16.66
2019-05-13T16:23:16.480Z,16.78
2019-05-13T16:25:48.074Z,16.69
2019-05-13T16:28:19.952Z,16.61
2019-05-13T16:30:51.797Z,16.73
2019-05-13T16:33:24.497Z,16.84
2019-05-13T16:35:56.129Z,16.87
2019-05-13T16:38:27.984Z,16.87
2019-05-13T16:40:59.814Z,16.83
2019-05-13T16:43:32.074Z,16.77
2019-05-13T16:46:07.038Z,16.96
2019-05-13T16:48:37.252Z,16.83
2019-05-13T16:51:12.339Z,16.85
2019-05-13T16:53:43.380Z,16.92
2019-05-13T16:56:26.422Z,16.86
2019-05-13T16:58:48.952Z,16.81
2019-05-13T17:01:21.957Z,16.81
2019-05-13T17:03:52.710Z,16.51
2019-05-13T17:06:24.193Z,16.75
2019-05-13T17:08:56.051Z,16.60
2019-05-13T17:11:27.774Z,16.55
2019-05-13T17:13:59.382Z,16.49
2019-05-13T17:16:31.718Z,16.52
2019-05-13T17:19:03.685Z,16.53
2019-05-13T17:21:36.157Z,16.34
2019-05-13T17:24:07.895Z,16.41
2019-05-13T17:26:41.592Z,16.22
2019-05-13T17:29:12.768Z,16.25
2019-05-13T17:31:44.678Z,16.15
2019-05-13T17:34:16.900Z,16.25
2019-05-13T17:36:48.627Z,16.19
2019-05-13T17:39:21.347Z,16.15
2019-05-13T17:41:53.477Z,16.21
2019-05-13T17:44:25.323Z,16.26
2019-05-13T17:46:57.052Z,16.24
2019-05-13T17:49:28.644Z,16.17
2019-05-13T17:52:02.455Z,16.10
2019-05-13T17:54:34.819Z,16.16
2019-05-13T17:57:06.336Z,16.20
2019-05-13T17:59:38.037Z,16.08
2019-05-13T18:02:11.803Z,16.09
2019-05-13T18:04:43.501Z,16.16
2019-05-13T18:07:18.221Z,16.02
2019-05-13T18:09:52.059Z,16.00
2019-05-13T18:12:24.009Z,15.86
2019-05-13T18:14:55.535Z,15.89
2019-05-13T18:17:27.312Z,15.78
2019-05-13T18:20:02.419Z,15.79
2019-05-13T18:22:33.649Z,15.79
2019-05-13T18:25:05.200Z,15.68
2019-05-13T18:27:37.254Z,15.70
2019-05-13T18:30:11.316Z,15.65
2019-05-13T18:32:42.682Z,15.65
2019-05-13T18:35:14.755Z,15.63
2019-05-13T18:37:46.370Z,15.73
2019-05-13T18:40:18.578Z,15.79
2019-05-13T18:42:51.442Z,15.78
2019-05-13T18:45:23.371Z,15.78
2019-05-13T18:47:54.968Z,15.78
2019-05-13T18:50:26.546Z,15.80
2019-05-13T18:52:58.183Z,15.70
2019-05-13T18:55:30.175Z,15.73
2019-05-13T18:58:01.897Z,15.76
2019-05-13T19:00:33.491Z,15.72
2019-05-13T19:03:05.571Z,15.71
2019-05-13T19:05:37.164Z,15.79
2019-05-13T19:08:08.905Z,15.77
2019-05-13T19:10:41.490Z,15.72
2019-05-13T19:13:13.736Z,15.71
2019-05-13T19:15:45.406Z,15.74
2019-05-13T19:18:18.139Z,15.79
2019-05-13T19:20:51.322Z,15.77
2019-05-13T19:23:23.423Z,15.74
2019-05-13T19:25:55.061Z,15.79
2019-05-13T19:28:26.892Z,15.79
2019-05-13T19:30:58.558Z,15.82
2019-05-13T19:33:30.351Z,15.76
2019-05-13T19:36:02.020Z,15.64
2019-05-13T19:38:34.164Z,15.74
2019-05-13T19:41:05.990Z,15.73
2019-05-13T19:43:37.808Z,15.83
2019-05-13T19:46:09.644Z,15.76
2019-05-13T19:48:41.858Z,15.83
2019-05-13T19:51:13.579Z,15.78
2019-05-13T19:53:45.274Z,15.81
2019-05-13T19:56:17.165Z,15.83
2019-05-13T19:58:49.298Z,15.86
2019-05-13T20:01:21.763Z,15.78
2019-05-13T20:03:53.594Z,15.68
2019-05-13T20:06:26.049Z,15.63
2019-05-13T20:08:57.943Z,15.54
2019-05-13T20:11:29.658Z,15.56
2019-05-13T20:14:01.535Z,15.65
2019-05-13T20:16:33.374Z,15.44
2019-05-13T20:19:05.141Z,15.49
2019-05-13T20:21:37.127Z,15.44
2019-05-13T20:24:08.927Z,15.40
2019-05-13T20:26:42.038Z,15.29
2019-05-13T20:29:13.817Z,15.21
2019-05-13T20:31:45.572Z,15.21
2019-05-13T20:34:17.027Z,15.27
2019-05-13T20:36:51.435Z,15.15
2019-05-13T20:39:22.587Z,15.15
2019-05-13T20:41:55.874Z,15.12
2019-05-13T20:44:27.892Z,15.07
2019-05-13T20:47:01.630Z,15.09
2019-05-13T20:49:33.025Z,15.00
2019-05-13T20:52:04.772Z,15.09
2019-05-13T20:54:36.540Z,15.07
2019-05-13T20:57:08.126Z,15.06
2019-05-13T20:59:41.361Z,15.06
2019-05-13T21:02:12.566Z,15.00
2019-05-13T21:04:44.282Z,15.15
2019-05-13T21:07:17.112Z,14.96
2019-05-13T21:09:48.585Z,14.87
2019-05-13T21:12:22.014Z,14.93
2019-05-13T21:14:53.388Z,14.96
2019-05-13T21:17:25.419Z,14.97
2019-05-13T21:20:01.108Z,14.97
2019-05-13T21:22:31.735Z,14.99
2019-05-13T21:25:03.464Z,14.94
2019-05-13T21:27:35.180Z,14.99
2019-05-13T21:30:06.959Z,14.95
2019-05-13T21:32:38.701Z,14.99
2019-05-13T21:35:11.897Z,15.04
2019-05-13T21:37:43.924Z,14.96
2019-05-13T21:40:18.276Z,14.87
2019-05-13T21:42:52.441Z,14.82
2019-05-13T21:45:23.561Z,14.76
2019-05-13T21:47:55.271Z,14.60
2019-05-13T21:50:34.241Z,14.57
2019-05-13T21:53:02.051Z,14.46
2019-05-13T21:55:33.974Z,14.50
2019-05-13T21:58:05.621Z,14.42
2019-05-13T22:00:42.992Z,14.29
2019-05-13T22:03:15.961Z,14.33
2019-05-13T22:05:47.650Z,14.21
2019-05-13T22:08:21.669Z,14.11
2019-05-13T22:10:53.164Z,14.00
2019-05-13T22:13:25.074Z,13.88
2019-05-13T22:15:56.992Z,14.04
2019-05-13T22:18:31.427Z,14.05
2019-05-13T22:21:02.645Z,14.02
2019-05-13T22:23:34.261Z,13.89
2019-05-13T22:26:05.987Z,13.78
2019-05-13T22:28:37.824Z,13.89
2019-05-13T22:31:11.639Z,13.87
2019-05-13T22:33:45.205Z,13.84
2019-05-13T22:36:15.025Z,13.81
2019-05-13T22:38:46.735Z,13.64
2019-05-13T22:41:18.122Z,13.62
2019-05-13T22:43:55.628Z,13.53
2019-05-13T22:46:23.318Z,13.45
2019-05-13T22:48:55.258Z,13.51
2019-05-13T22:51:26.955Z,13.59
2019-05-13T22:53:59.257Z,13.58
2019-05-13T22:56:31.985Z,13.60
2019-05-13T22:59:04.040Z,13.58
2019-05-13T23:01:36.203Z,13.40
2019-05-13T23:04:08.306Z,13.47
2019-05-13T23:06:40.184Z,13.43
2019-05-13T23:09:12.620Z,13.40
2019-05-13T23:11:47.203Z,13.34
2019-05-13T23:14:19.131Z,13.40
2019-05-13T23:16:50.879Z,13.37
2019-05-13T23:19:22.399Z,13.25
2019-05-13T23:21:54.998Z,13.28
2019-05-13T23:24:26.712Z,13.18
2019-05-13T23:26:58.560Z,13.25
2019-05-13T23:29:31.934Z,13.21
2019-05-13T23:32:04.970Z,13.16
2019-05-13T23:34:36.701Z,13.20
2019-05-13T23:37:08.465Z,13.14
2019-05-13T23:39:41.612Z,13.10
2019-05-13T23:42:14.635Z,13.09
2019-05-13T23:44:46.566Z,13.19
2019-05-13T23:47:18.573Z,13.18
2019-05-13T23:49:51.308Z,13.08
2019-05-13T23:52:23.284Z,13.04
2019-05-13T23:54:55.024Z,13.16
2019-05-13T23:57:27.097Z,12.92
2019-05-13T23:59:58.715Z,12.88
